createdAt,value
2019-05-15T00:00:52.267Z,66.3645
2019-05-15T00:01:55.308Z,66.7262
2019-05-15T00:02:58.926Z,66.8467
2019-05-15T00:04:02.267Z,66.9001
2019-05-15T00:05:05.299Z,66.8315
2019-05-15T00:06:08.645Z,66.9978
2019-05-15T00:07:11.301Z,67.2541
2019-05-15T00:08:14.343Z,67.2160
2019-05-15T00:09:19.104Z,67.3457
2019-05-15T00:10:22.287Z,67.4815
2019-05-15T00:11:25.321Z,67.4769
2019-05-15T00:12:28.491Z,67.5334
2019-05-15T00:13:31.320Z,67.6554
2019-05-15T00:14:34.295Z,67.6020
2019-05-15T00:15:39.784Z,67.4769
2019-05-15T00:16:42.315Z,67.4861
2019-05-15T00:17:45.280Z,67.6661
2019-05-15T00:18:48.406Z,67.6966
2019-05-15T00:19:51.284Z,68.0644
2019-05-15T00:20:54.297Z,67.7897
2019-05-15T00:21:58.585Z,68.2109
2019-05-15T00:23:01.277Z,68.4520
2019-05-15T00:24:04.349Z,68.5527
2019-05-15T00:25:09.316Z,68.6626
2019-05-15T00:26:12.298Z,68.4810
2019-05-15T00:27:14.293Z,68.7312
2019-05-15T00:28:18.570Z,69.0928
2019-05-15T00:29:21.312Z,69.3278
2019-05-15T00:30:24.315Z,69.4469
2019-05-15T00:31:29.161Z,69.3858
2019-05-15T00:32:32.310Z,69.3950
2019-05-15T00:33:35.306Z,69.6284
2019-05-15T00:34:38.271Z,69.4820
2019-05-15T00:35:41.322Z,69.5018
2019-05-15T00:36:44.269Z,69.6788
2019-05-15T00:37:49.263Z,69.9306
2019-05-15T00:38:52.316Z,70.0694
2019-05-15T00:39:55.317Z,70.1060
2019-05-15T00:40:58.610Z,70.0816
2019-05-15T00:42:01.320Z,69.9870
2019-05-15T00:43:04.292Z,70.3014
2019-05-15T00:44:09.226Z,70.3258
2019-05-15T00:45:12.266Z,70.5913
2019-05-15T00:46:15.273Z,70.6600
2019-05-15T00:47:18.325Z,70.7362
2019-05-15T00:48:21.302Z,70.9758
2019-05-15T00:49:24.335Z,71.0719
2019-05-15T00:50:28.744Z,70.9987
2019-05-15T00:51:30.282Z,70.9163
2019-05-15T00:52:33.292Z,70.9438
2019-05-15T00:53:38.752Z,71.2581
2019-05-15T00:54:42.356Z,71.1818
2019-05-15T00:55:45.277Z,71.3359
2019-05-15T00:56:48.524Z,71.1894
2019-05-15T00:57:51.309Z,71.3542
2019-05-15T00:58:54.282Z,71.6304
2019-05-15T00:59:58.954Z,71.8669
2019-05-15T01:01:02.308Z,72.0089
2019-05-15T01:02:05.283Z,72.1325
2019-05-15T01:03:08.749Z,72.1889
2019-05-15T01:04:12.347Z,72.1508
2019-05-15T01:05:15.282Z,72.3354
2019-05-15T01:06:19.033Z,72.3949
2019-05-15T01:07:21.301Z,72.4681
2019-05-15T01:08:24.272Z,72.4315
2019-05-15T01:09:29.226Z,72.7520
2019-05-15T01:10:32.309Z,72.7367
2019-05-15T01:11:35.288Z,72.7657
2019-05-15T01:12:38.304Z,72.8435
2019-05-15T01:13:41.286Z,72.8664
2019-05-15T01:14:44.346Z,73.1029
2019-05-15T01:15:48.966Z,73.2464
2019-05-15T01:16:52.296Z,73.1075
2019-05-15T01:17:55.307Z,73.2738
2019-05-15T01:18:58.563Z,73.3700
2019-05-15T01:20:01.336Z,73.3791
2019-05-15T01:21:04.268Z,73.3745
2019-05-15T01:22:08.709Z,73.5164
2019-05-15T01:23:11.280Z,73.5424
2019-05-15T01:24:14.306Z,73.5851
2019-05-15T01:25:18.609Z,73.6812
2019-05-15T01:26:23.295Z,73.5805
2019-05-15T01:27:28.997Z,73.3242
2019-05-15T01:28:32.302Z,73.2464
2019-05-15T01:29:41.964Z,73.2372
2019-05-15T01:30:43.301Z,73.4295
2019-05-15T01:31:48.508Z,73.4295
2019-05-15T01:32:52.306Z,72.9381
2019-05-15T01:33:55.260Z,72.9381
2019-05-15T01:34:58.348Z,72.9717
2019-05-15T01:36:01.300Z,73.1914
2019-05-15T01:37:04.287Z,73.1899
2019-05-15T01:38:08.107Z,72.8893
2019-05-15T01:39:11.313Z,72.9717
2019-05-15T01:40:14.300Z,72.9381
2019-05-15T01:41:19.336Z,72.9976
2019-05-15T01:42:22.294Z,73.1716
2019-05-15T01:43:25.297Z,72.9335
2019-05-15T01:44:28.704Z,72.7291
2019-05-15T01:45:31.344Z,73.1121
2019-05-15T01:46:34.271Z,72.7138
2019-05-15T01:47:38.925Z,73.0724
2019-05-15T01:48:41.275Z,72.9946
2019-05-15T01:49:44.310Z,72.9793
2019-05-15T01:50:49.221Z,73.1487
2019-05-15T01:51:52.309Z,73.1716
2019-05-15T01:52:55.295Z,73.2784
2019-05-15T01:53:58.511Z,73.2128
2019-05-15T01:55:01.316Z,73.2509
2019-05-15T01:56:04.308Z,73.2509
2019-05-15T01:57:09.370Z,73.3288
2019-05-15T01:58:12.296Z,73.1868
2019-05-15T01:59:15.266Z,73.4981
2019-05-15T02:00:18.839Z,73.6889
2019-05-15T02:01:22.270Z,73.7621
2019-05-15T02:02:25.308Z,73.6523
2019-05-15T02:03:28.970Z,73.6751
2019-05-15T02:04:32.310Z,73.8262
2019-05-15T02:05:35.284Z,73.8491
2019-05-15T02:06:39.075Z,74.0230
2019-05-15T02:07:42.291Z,74.0246
2019-05-15T02:08:45.281Z,73.9452
2019-05-15T02:09:49.273Z,73.9590
2019-05-15T02:10:51.294Z,73.9040
2019-05-15T02:11:54.305Z,73.8582
2019-05-15T02:12:58.746Z,73.8903
2019-05-15T02:14:01.321Z,73.9422
2019-05-15T02:15:04.278Z,73.6400
2019-05-15T02:16:08.400Z,73.7667
2019-05-15T02:17:11.270Z,73.8079
2019-05-15T02:18:14.300Z,73.9590
2019-05-15T02:19:19.219Z,73.9651
2019-05-15T02:20:21.285Z,74.1604
2019-05-15T02:21:24.282Z,74.0002
2019-05-15T02:22:28.332Z,74.1833
2019-05-15T02:23:31.308Z,74.2107
2019-05-15T02:24:34.291Z,74.3175
2019-05-15T02:25:38.761Z,74.4961
2019-05-15T02:26:42.303Z,74.4808
2019-05-15T02:27:45.310Z,74.6380
2019-05-15T02:28:48.829Z,74.8516
2019-05-15T02:29:52.283Z,74.8440
2019-05-15T02:30:58.467Z,75.0591
2019-05-15T02:32:01.292Z,74.8287
2019-05-15T02:33:04.316Z,74.9401
2019-05-15T02:34:10.097Z,75.0286
2019-05-15T02:35:13.285Z,75.3353
2019-05-15T02:36:20.182Z,75.3796
2019-05-15T02:37:23.317Z,75.4482
2019-05-15T02:38:29.272Z,75.1644
2019-05-15T02:39:32.310Z,75.2331
2019-05-15T02:40:35.311Z,75.1751
2019-05-15T02:41:39.752Z,75.2789
2019-05-15T02:42:43.328Z,75.3201
2019-05-15T02:43:49.713Z,75.1431
2019-05-15T02:44:52.311Z,75.1736
2019-05-15T02:45:55.296Z,75.1644
2019-05-15T02:46:58.938Z,75.0011
2019-05-15T02:48:02.290Z,74.8943
2019-05-15T02:49:08.522Z,74.8943
2019-05-15T02:50:12.290Z,74.8806
2019-05-15T02:51:15.347Z,75.1247
2019-05-15T02:52:19.855Z,75.3262
2019-05-15T02:53:23.280Z,75.4223
2019-05-15T02:54:25.294Z,75.4894
2019-05-15T02:55:29.635Z,75.5261
2019-05-15T02:56:33.375Z,75.4894
2019-05-15T02:57:39.408Z,75.7733
2019-05-15T02:58:42.332Z,75.8526
2019-05-15T02:59:45.290Z,75.9075
2019-05-15T03:00:53.141Z,75.9167
2019-05-15T03:01:59.163Z,75.9533
2019-05-15T03:03:02.314Z,76.0082
2019-05-15T03:04:05.276Z,76.0891
2019-05-15T03:05:09.330Z,76.1364
2019-05-15T03:06:11.486Z,76.3180
2019-05-15T03:07:14.317Z,76.3607
2019-05-15T03:08:19.595Z,76.4279
2019-05-15T03:09:23.298Z,76.4843
2019-05-15T03:10:29.397Z,76.4187
2019-05-15T03:11:32.298Z,76.4370
2019-05-15T03:12:35.301Z,76.5743
2019-05-15T03:13:39.217Z,76.5835
2019-05-15T03:14:42.340Z,76.5057
2019-05-15T03:15:48.631Z,76.4294
2019-05-15T03:16:52.294Z,76.5484
2019-05-15T03:17:55.352Z,76.7269
2019-05-15T03:18:59.737Z,76.8627
2019-05-15T03:20:03.310Z,76.7910
2019-05-15T03:21:09.278Z,76.9329
2019-05-15T03:22:13.328Z,76.9772
2019-05-15T03:23:19.527Z,76.7773
2019-05-15T03:24:22.319Z,76.8124
2019-05-15T03:25:25.273Z,76.6079
2019-05-15T03:26:29.826Z,76.6751
2019-05-15T03:27:34.928Z,76.8322
2019-05-15T03:28:39.364Z,77.0001
2019-05-15T03:29:42.298Z,77.1786
2019-05-15T03:31:15.512Z,77.2061
2019-05-15T03:32:13.225Z,77.3663
2019-05-15T03:33:08.820Z,77.4990
2019-05-15T03:34:20.306Z,77.7096
2019-05-15T03:35:21.972Z,77.7844
2019-05-15T03:36:31.104Z,77.7935
2019-05-15T03:37:34.378Z,77.8714
2019-05-15T03:38:39.360Z,77.7935
2019-05-15T03:39:46.534Z,77.7508
2019-05-15T03:40:50.299Z,77.3724
2019-05-15T03:41:53.308Z,77.5830
2019-05-15T03:42:59.270Z,77.5494
2019-05-15T03:44:02.350Z,77.5952
2019-05-15T03:45:05.354Z,77.8195
2019-05-15T03:46:09.144Z,77.4990
2019-05-15T03:47:12.306Z,77.4777
2019-05-15T03:48:15.305Z,77.6410
2019-05-15T03:49:19.924Z,77.7432
2019-05-15T03:50:23.339Z,77.3022
2019-05-15T03:51:28.922Z,77.4411
2019-05-15T03:52:32.300Z,77.6043
2019-05-15T03:53:35.336Z,77.6730
2019-05-15T03:54:39.218Z,77.6013
2019-05-15T03:55:42.282Z,77.6410
2019-05-15T03:56:45.291Z,77.8836
2019-05-15T03:57:49.884Z,77.6226
2019-05-15T03:58:53.331Z,77.8012
2019-05-15T03:59:56.270Z,77.8347
2019-05-15T04:01:00.167Z,78.0301
2019-05-15T04:02:03.332Z,78.0850
2019-05-15T04:03:06.268Z,78.2055
2019-05-15T04:04:09.701Z,78.2452
2019-05-15T04:05:12.463Z,78.3780
2019-05-15T04:06:14.299Z,78.4619
2019-05-15T04:07:18.826Z,78.5672
2019-05-15T04:08:22.309Z,78.4710
2019-05-15T04:09:25.333Z,78.6084
2019-05-15T04:10:28.835Z,78.6435
2019-05-15T04:11:32.290Z,78.6313
2019-05-15T04:12:35.263Z,78.7350
2019-05-15T04:13:39.680Z,78.8998
2019-05-15T04:14:43.277Z,78.9609
2019-05-15T04:15:49.816Z,78.9975
2019-05-15T04:16:53.302Z,78.9563
2019-05-15T04:17:59.993Z,78.9090
2019-05-15T04:19:03.342Z,78.7228
2019-05-15T04:20:09.594Z,78.8769
2019-05-15T04:21:12.317Z,78.6847
2019-05-15T04:22:15.313Z,78.9929
2019-05-15T04:23:19.065Z,78.7549
2019-05-15T04:24:22.332Z,78.8556
2019-05-15T04:25:25.301Z,78.9242
2019-05-15T04:26:28.870Z,79.1531
2019-05-15T04:27:32.326Z,79.2401
2019-05-15T04:28:35.294Z,79.1608
2019-05-15T04:29:39.744Z,79.1791
2019-05-15T04:30:43.317Z,79.3317
2019-05-15T04:31:58.908Z,79.0784
2019-05-15T04:32:54.339Z,79.2950
2019-05-15T04:33:59.318Z,79.1287
2019-05-15T04:35:02.342Z,78.7991
2019-05-15T04:36:05.270Z,78.8876
2019-05-15T04:37:09.400Z,79.2111
2019-05-15T04:38:13.361Z,79.3500
2019-05-15T04:39:19.053Z,79.1928
2019-05-15T04:40:22.344Z,79.2813
2019-05-15T04:41:25.292Z,79.2905
2019-05-15T04:42:29.946Z,79.4858
2019-05-15T04:43:41.267Z,79.5453
2019-05-15T04:44:41.328Z,79.4827
2019-05-15T04:45:44.316Z,79.5727
2019-05-15T04:46:49.794Z,79.4095
2019-05-15T04:47:52.296Z,79.3439
2019-05-15T04:48:55.326Z,79.3408
2019-05-15T04:49:59.028Z,79.0600
2019-05-15T04:51:02.311Z,78.8876
2019-05-15T04:52:05.271Z,79.0753
2019-05-15T04:53:10.670Z,79.2248
2019-05-15T04:54:14.293Z,79.3408
2019-05-15T04:55:19.669Z,79.4278
2019-05-15T04:56:23.315Z,79.5361
2019-05-15T04:57:30.384Z,79.6460
2019-05-15T04:58:34.348Z,79.6521
2019-05-15T04:59:39.086Z,79.5773
2019-05-15T05:00:42.346Z,79.4186
2019-05-15T05:01:45.304Z,79.6826
2019-05-15T05:02:49.643Z,79.7208
2019-05-15T05:03:54.335Z,79.7147
2019-05-15T05:04:58.794Z,79.6292
2019-05-15T05:06:02.356Z,79.5193
2019-05-15T05:07:05.279Z,79.6704
2019-05-15T05:08:09.262Z,79.7162
2019-05-15T05:09:12.269Z,79.8352
2019-05-15T05:10:14.378Z,79.8947
2019-05-15T05:11:19.793Z,79.9542
2019-05-15T05:12:25.329Z,80.1541
2019-05-15T05:13:28.837Z,80.0504
2019-05-15T05:14:32.318Z,80.1236
2019-05-15T05:15:35.301Z,80.1312
2019-05-15T05:16:39.284Z,80.1373
2019-05-15T05:17:43.310Z,80.2182
2019-05-15T05:18:48.573Z,80.0137
2019-05-15T05:19:52.365Z,79.8382
2019-05-15T05:20:57.610Z,80.0763
2019-05-15T05:22:01.326Z,80.0320
2019-05-15T05:23:04.315Z,79.8352
2019-05-15T05:24:08.053Z,79.8382
2019-05-15T05:25:11.315Z,79.9023
2019-05-15T05:26:14.274Z,79.6231
2019-05-15T05:27:18.283Z,79.4537
2019-05-15T05:28:21.305Z,79.4598
2019-05-15T05:29:24.267Z,79.0326
2019-05-15T05:30:29.269Z,79.1028
2019-05-15T05:31:32.306Z,79.1165
2019-05-15T05:32:35.504Z,78.8693
2019-05-15T05:33:39.318Z,78.7350
2019-05-15T05:34:42.283Z,79.0188
2019-05-15T05:35:45.369Z,79.0204
2019-05-15T05:36:48.308Z,78.9426
2019-05-15T05:37:51.320Z,78.9014
2019-05-15T05:38:54.308Z,78.3154
2019-05-15T05:39:57.737Z,78.0636
2019-05-15T05:41:01.310Z,77.9217
2019-05-15T05:42:04.302Z,78.1125
2019-05-15T05:43:09.452Z,78.0987
2019-05-15T05:44:12.274Z,77.8942
2019-05-15T05:45:15.319Z,77.3678
2019-05-15T05:46:18.591Z,77.2900
2019-05-15T05:47:21.318Z,77.3892
2019-05-15T05:48:24.319Z,77.0703
2019-05-15T05:49:28.858Z,77.4075
2019-05-15T05:50:31.312Z,77.2656
2019-05-15T05:51:34.335Z,77.1008
2019-05-15T05:52:38.959Z,77.2808
2019-05-15T05:53:42.316Z,77.3159
2019-05-15T05:54:45.332Z,77.2152
2019-05-15T05:55:49.201Z,77.0794
2019-05-15T05:56:54.340Z,77.0565
2019-05-15T05:57:58.418Z,76.5972
2019-05-15T05:59:01.294Z,76.4004
2019-05-15T06:00:04.320Z,76.4233
2019-05-15T06:01:09.406Z,76.4385
2019-05-15T06:02:12.301Z,76.0983
2019-05-15T06:03:15.346Z,76.1776
2019-05-15T06:04:18.726Z,76.3378
2019-05-15T06:05:22.321Z,75.5032
2019-05-15T06:06:25.346Z,75.4849
2019-05-15T06:07:28.306Z,74.9905
2019-05-15T06:08:31.316Z,74.8379
2019-05-15T06:09:34.310Z,74.6639
2019-05-15T06:10:38.573Z,74.8882
2019-05-15T06:11:42.339Z,74.5632
2019-05-15T06:12:45.283Z,74.1070
2019-05-15T06:13:52.264Z,74.4991
2019-05-15T06:14:55.309Z,74.7112
2019-05-15T06:15:59.094Z,74.3435
2019-05-15T06:17:02.348Z,74.1390
2019-05-15T06:18:05.312Z,74.1283
2019-05-15T06:19:08.432Z,73.4615
2019-05-15T06:20:11.274Z,73.5714
2019-05-15T06:21:14.334Z,73.6385
2019-05-15T06:22:18.804Z,73.8903
2019-05-15T06:23:25.114Z,73.2006
2019-05-15T06:24:30.525Z,73.2036
2019-05-15T06:25:34.322Z,73.3181
2019-05-15T06:26:38.598Z,73.5470
2019-05-15T06:27:41.317Z,73.0755
2019-05-15T06:28:44.291Z,72.9564
2019-05-15T06:29:48.487Z,73.1548
2019-05-15T06:30:51.315Z,72.6238
2019-05-15T06:31:54.369Z,72.5048
2019-05-15T06:33:05.694Z,72.2988
2019-05-15T06:34:05.326Z,72.6177
2019-05-15T06:35:09.358Z,72.3842
2019-05-15T06:36:12.286Z,72.5719
2019-05-15T06:37:15.355Z,72.4269
2019-05-15T06:38:19.452Z,71.9585
2019-05-15T06:39:23.366Z,71.1818
2019-05-15T06:40:28.752Z,71.5419
2019-05-15T06:41:34.003Z,71.5526
2019-05-15T06:42:39.457Z,71.6030
2019-05-15T06:43:42.288Z,70.6996
2019-05-15T06:44:48.351Z,70.8888
2019-05-15T06:45:51.297Z,71.0796
2019-05-15T06:46:54.340Z,70.4631
2019-05-15T06:47:58.221Z,70.3120
2019-05-15T06:49:03.329Z,70.5211
2019-05-15T06:50:08.418Z,69.8116
2019-05-15T06:51:11.337Z,69.9184
2019-05-15T06:52:14.344Z,69.9123
2019-05-15T06:53:19.356Z,69.7490
2019-05-15T06:54:22.305Z,69.7261
2019-05-15T06:55:25.342Z,69.6712
2019-05-15T06:56:28.187Z,69.9687
2019-05-15T06:57:31.342Z,69.6788
2019-05-15T06:58:34.345Z,69.1768
2019-05-15T06:59:38.927Z,69.5064
2019-05-15T07:00:42.298Z,69.5613
2019-05-15T07:01:47.953Z,69.4560
2019-05-15T07:02:51.318Z,69.5552
2019-05-15T07:03:54.304Z,69.7719
2019-05-15T07:04:58.414Z,69.4789
2019-05-15T07:06:01.301Z,68.6214
2019-05-15T07:07:04.318Z,69.1478
2019-05-15T07:08:09.098Z,69.1386
2019-05-15T07:09:12.336Z,69.1997
2019-05-15T07:10:15.334Z,68.4672
2019-05-15T07:11:19.062Z,68.5084
2019-05-15T07:12:21.382Z,68.9525
2019-05-15T07:13:24.306Z,68.6214
2019-05-15T07:14:28.785Z,68.5893
2019-05-15T07:15:32.322Z,67.6890
2019-05-15T07:16:35.290Z,67.6143
2019-05-15T07:17:39.317Z,68.2826
2019-05-15T07:18:43.312Z,68.8243
2019-05-15T07:19:48.443Z,68.4337
2019-05-15T07:20:51.303Z,68.1910
2019-05-15T07:21:54.367Z,67.9438
2019-05-15T07:22:58.646Z,68.1041
2019-05-15T07:24:02.308Z,67.0649
2019-05-15T07:25:05.307Z,66.6224
2019-05-15T07:26:09.529Z,66.4012
2019-05-15T07:27:13.298Z,66.5354
2019-05-15T07:28:18.122Z,66.4759
2019-05-15T07:29:21.282Z,67.5425
2019-05-15T07:30:24.350Z,66.2181
2019-05-15T07:31:28.891Z,66.3920
2019-05-15T07:32:32.287Z,66.5309
2019-05-15T07:33:40.410Z,66.4210
2019-05-15T07:34:43.304Z,66.8956
2019-05-15T07:35:45.326Z,66.1234
2019-05-15T07:36:49.260Z,65.7649
2019-05-15T07:37:52.338Z,64.8447
2019-05-15T07:38:57.799Z,66.8681
2019-05-15T07:40:01.304Z,64.7730
2019-05-15T07:41:04.625Z,64.8035
2019-05-15T07:42:08.693Z,64.5991
2019-05-15T07:43:12.328Z,64.8356
2019-05-15T07:44:15.379Z,64.5380
2019-05-15T07:45:19.720Z,65.3712
2019-05-15T07:46:23.312Z,65.6382
2019-05-15T07:47:28.800Z,65.0706
2019-05-15T07:48:32.316Z,65.0462
2019-05-15T07:49:35.393Z,65.4398
2019-05-15T07:50:38.899Z,64.7913
2019-05-15T07:51:42.312Z,64.9378
2019-05-15T07:52:45.290Z,64.7410
2019-05-15T07:53:49.022Z,65.1530
2019-05-15T07:54:51.333Z,65.0568
2019-05-15T07:55:54.333Z,64.1367
2019-05-15T07:56:58.221Z,65.0004
2019-05-15T07:58:01.317Z,64.0299
2019-05-15T07:59:04.374Z,64.3931
2019-05-15T08:00:08.252Z,63.8849
2019-05-15T08:01:11.308Z,65.1163
2019-05-15T08:02:14.317Z,64.9454
2019-05-15T08:03:18.411Z,63.6927
2019-05-15T08:04:28.906Z,63.6423
2019-05-15T08:05:29.289Z,64.1352
2019-05-15T08:06:32.330Z,63.3936
2019-05-15T08:07:35.283Z,63.3631
2019-05-15T08:08:39.286Z,63.9292
2019-05-15T08:09:42.331Z,63.5676
2019-05-15T08:10:45.334Z,63.2288
2019-05-15T08:11:48.710Z,62.2827
2019-05-15T08:12:52.276Z,62.0813
2019-05-15T08:13:55.321Z,62.2644
2019-05-15T08:14:58.429Z,61.1337
2019-05-15T08:16:01.309Z,62.1988
2019-05-15T08:17:04.306Z,62.2171
2019-05-15T08:18:09.912Z,60.9125
2019-05-15T08:19:15.324Z,62.0630
2019-05-15T08:20:18.486Z,61.1246
2019-05-15T08:21:21.300Z,61.2848
2019-05-15T08:22:24.350Z,60.2640
2019-05-15T08:23:28.451Z,60.1221
2019-05-15T08:24:31.324Z,60.3006
2019-05-15T08:25:35.474Z,60.6851
2019-05-15T08:26:42.357Z,60.7980
2019-05-15T08:27:48.537Z,60.2502
2019-05-15T08:28:51.307Z,60.3632
2019-05-15T08:29:54.360Z,60.2823
2019-05-15T08:30:58.427Z,59.5773
2019-05-15T08:32:02.381Z,59.9649
2019-05-15T08:33:05.304Z,58.8403
2019-05-15T08:34:15.361Z,59.4659
2019-05-15T08:35:18.927Z,59.3149
2019-05-15T08:36:22.308Z,59.6216
2019-05-15T08:37:25.370Z,59.2157
2019-05-15T08:38:28.949Z,59.7131
2019-05-15T08:39:32.337Z,60.3082
2019-05-15T08:40:35.339Z,60.8316
2019-05-15T08:41:39.098Z,60.4135
2019-05-15T08:42:42.290Z,61.5732
2019-05-15T08:43:45.321Z,61.7182
2019-05-15T08:44:49.004Z,61.2833
2019-05-15T08:45:52.345Z,60.8255
2019-05-15T08:46:55.291Z,60.4044
2019-05-15T08:47:58.670Z,60.6790
2019-05-15T08:49:02.321Z,59.9008
2019-05-15T08:50:05.327Z,60.4608
2019-05-15T08:51:08.858Z,60.2579
2019-05-15T08:52:12.289Z,61.0651
2019-05-15T08:53:15.338Z,61.5732
2019-05-15T08:54:18.482Z,61.8418
2019-05-15T08:55:21.317Z,61.7182
2019-05-15T08:56:24.416Z,61.0132
2019-05-15T08:57:28.973Z,61.0880
2019-05-15T08:58:32.334Z,60.4547
2019-05-15T08:59:35.305Z,59.9023
2019-05-15T09:00:39.794Z,59.7192
2019-05-15T09:01:45.296Z,60.3037
2019-05-15T09:02:48.879Z,60.0076
2019-05-15T09:03:52.304Z,59.9237
2019-05-15T09:04:57.895Z,60.2594
2019-05-15T09:06:01.311Z,59.8703
2019-05-15T09:07:04.388Z,59.9298
2019-05-15T09:08:09.344Z,58.5016
2019-05-15T09:09:12.288Z,58.0301
2019-05-15T09:10:15.345Z,58.4741
2019-05-15T09:11:19.176Z,57.2274
2019-05-15T09:12:21.373Z,57.7584
2019-05-15T09:13:24.315Z,57.9568
2019-05-15T09:14:28.580Z,58.1537
2019-05-15T09:15:32.341Z,57.7584
2019-05-15T09:16:35.331Z,56.9818
2019-05-15T09:17:39.885Z,57.2732
2019-05-15T09:18:43.272Z,57.3144
2019-05-15T09:19:45.320Z,56.6751
2019-05-15T09:20:49.174Z,56.7391
2019-05-15T09:21:52.378Z,56.4645
2019-05-15T09:22:58.266Z,55.6451
2019-05-15T09:24:01.313Z,54.9310
2019-05-15T09:25:04.293Z,54.7463
2019-05-15T09:26:09.221Z,55.2377
2019-05-15T09:27:12.296Z,54.1833
2019-05-15T09:28:15.320Z,54.8257
2019-05-15T09:29:18.461Z,55.2865
2019-05-15T09:30:20.335Z,55.2377
2019-05-15T09:31:23.358Z,55.7824
2019-05-15T09:32:28.312Z,56.3546
2019-05-15T09:33:31.332Z,56.1791
2019-05-15T09:34:47.954Z,56.6232
2019-05-15T09:35:42.346Z,56.1440
2019-05-15T09:36:45.437Z,56.7346
2019-05-15T09:37:48.830Z,56.7285
2019-05-15T09:38:52.312Z,56.3409
2019-05-15T09:39:55.339Z,54.4305
2019-05-15T09:40:58.639Z,54.9111
2019-05-15T09:42:02.332Z,55.3475
2019-05-15T09:43:05.352Z,55.7183
2019-05-15T09:44:08.332Z,55.7671
2019-05-15T09:45:11.331Z,55.8694
2019-05-15T09:46:14.336Z,56.3531
2019-05-15T09:47:18.840Z,56.1807
2019-05-15T09:48:22.331Z,56.6690
2019-05-15T09:49:24.333Z,56.4324
2019-05-15T09:50:28.247Z,55.4971
2019-05-15T09:51:31.320Z,55.5398
2019-05-15T09:52:34.337Z,54.8333
2019-05-15T09:53:39.343Z,55.2178
2019-05-15T09:54:42.331Z,55.1125
2019-05-15T09:55:45.313Z,55.4559
2019-05-15T09:56:50.406Z,54.1482
2019-05-15T09:57:55.156Z,54.9172
2019-05-15T09:58:58.362Z,54.9172
2019-05-15T10:00:01.299Z,55.0179
2019-05-15T10:01:04.284Z,55.6451
2019-05-15T10:02:09.221Z,55.3735
2019-05-15T10:03:12.308Z,55.2743
2019-05-15T10:04:15.312Z,54.5586
2019-05-15T10:05:18.837Z,55.2224
2019-05-15T10:06:24.371Z,53.9376
2019-05-15T10:07:28.584Z,54.0826
2019-05-15T10:08:32.354Z,54.1695
2019-05-15T10:09:35.288Z,53.8872
2019-05-15T10:10:38.305Z,53.5943
2019-05-15T10:11:41.334Z,52.8328
2019-05-15T10:12:44.337Z,52.1370
2019-05-15T10:13:47.352Z,53.3547
2019-05-15T10:14:50.314Z,50.9163
2019-05-15T10:15:53.312Z,51.9356
2019-05-15T10:16:58.412Z,51.2367
2019-05-15T10:18:02.372Z,51.5557
2019-05-15T10:19:05.284Z,52.3995
2019-05-15T10:20:09.155Z,52.6558
2019-05-15T10:21:12.297Z,51.7067
2019-05-15T10:22:15.329Z,51.7845
2019-05-15T10:23:19.465Z,50.9712
2019-05-15T10:24:23.332Z,49.3919
2019-05-15T10:25:28.130Z,50.0725
2019-05-15T10:26:31.300Z,48.3925
2019-05-15T10:27:36.388Z,48.9525
2019-05-15T10:28:41.346Z,49.7246
2019-05-15T10:29:44.326Z,49.8268
2019-05-15T10:30:49.218Z,49.9992
2019-05-15T10:31:53.324Z,50.6859
2019-05-15T10:32:56.328Z,51.0704
2019-05-15T10:33:59.309Z,52.0180
2019-05-15T10:35:02.330Z,52.9610
2019-05-15T10:36:05.297Z,53.7346
2019-05-15T10:37:08.497Z,53.6080
2019-05-15T10:38:11.331Z,53.9467
2019-05-15T10:39:14.317Z,53.1716
2019-05-15T10:40:20.161Z,54.0459
2019-05-15T10:41:23.324Z,53.8552
2019-05-15T10:42:28.875Z,53.5561
2019-05-15T10:43:32.309Z,53.6156
2019-05-15T10:44:35.314Z,53.5988
2019-05-15T10:45:42.405Z,53.5561
2019-05-15T10:46:48.269Z,52.0745
2019-05-15T10:47:51.300Z,51.2352
2019-05-15T10:48:54.351Z,51.3054
2019-05-15T10:49:57.336Z,52.2469
2019-05-15T10:51:05.926Z,52.1935
2019-05-15T10:52:08.727Z,52.2148
2019-05-15T10:53:14.338Z,52.5078
2019-05-15T10:54:19.269Z,51.9234
2019-05-15T10:55:21.305Z,52.3980
2019-05-15T10:56:24.287Z,53.2448
2019-05-15T10:57:28.065Z,53.5836
2019-05-15T10:58:31.379Z,54.1024
2019-05-15T10:59:34.313Z,53.8994
2019-05-15T11:00:37.331Z,54.2794
2019-05-15T11:01:40.306Z,54.3206
2019-05-15T11:02:43.344Z,54.5724
2019-05-15T11:03:46.324Z,54.7326
2019-05-15T11:04:52.329Z,54.3755
2019-05-15T11:05:55.309Z,53.5195
2019-05-15T11:06:58.308Z,52.7977
2019-05-15T11:08:01.314Z,51.9875
2019-05-15T11:09:04.319Z,52.0134
2019-05-15T11:10:08.623Z,51.9509
2019-05-15T11:11:12.310Z,52.4987
2019-05-15T11:12:15.374Z,50.7790
2019-05-15T11:13:18.876Z,51.2306
2019-05-15T11:14:22.334Z,51.1086
2019-05-15T11:15:25.329Z,51.3832
2019-05-15T11:16:28.410Z,51.4412
2019-05-15T11:17:31.607Z,50.7362
2019-05-15T11:18:35.330Z,51.8212
2019-05-15T11:19:40.644Z,52.6726
2019-05-15T11:20:44.311Z,53.4707
2019-05-15T11:21:48.519Z,53.1167
2019-05-15T11:22:51.345Z,53.6446
2019-05-15T11:23:54.339Z,53.6202
2019-05-15T11:24:59.423Z,53.5576
2019-05-15T11:26:02.336Z,53.4569
2019-05-15T11:27:05.295Z,53.6400
2019-05-15T11:28:08.395Z,53.6522
2019-05-15T11:29:11.363Z,53.9910
2019-05-15T11:30:14.296Z,53.5485
2019-05-15T11:31:17.334Z,53.3867
2019-05-15T11:32:20.325Z,53.0037
2019-05-15T11:33:23.326Z,53.0617
2019-05-15T11:34:28.797Z,52.7108
2019-05-15T11:35:32.323Z,52.4956
2019-05-15T11:36:35.278Z,52.9519
2019-05-15T11:37:44.146Z,53.4707
2019-05-15T11:38:45.363Z,52.4498
2019-05-15T11:39:48.411Z,51.7067
2019-05-15T11:40:51.294Z,51.9265
2019-05-15T11:41:54.276Z,52.8756
2019-05-15T11:42:57.300Z,52.4941
2019-05-15T11:44:00.294Z,52.7871
2019-05-15T11:45:03.373Z,52.8710
2019-05-15T11:46:06.318Z,51.5236
2019-05-15T11:47:09.351Z,51.0567
2019-05-15T11:48:12.368Z,51.1803
2019-05-15T11:49:15.298Z,51.3329
2019-05-15T11:50:20.461Z,50.4067
2019-05-15T11:51:24.276Z,50.1411
2019-05-15T11:52:29.485Z,49.5705
2019-05-15T11:53:32.316Z,49.5384
2019-05-15T11:54:35.289Z,50.1045
2019-05-15T11:55:38.810Z,50.3624
2019-05-15T11:56:41.329Z,50.7454
2019-05-15T11:57:47.608Z,50.1961
2019-05-15T11:58:52.313Z,50.3929
2019-05-15T11:59:56.426Z,50.8232
2019-05-15T12:01:02.354Z,51.0033
2019-05-15T12:02:05.270Z,50.7195
2019-05-15T12:03:08.902Z,50.9743
2019-05-15T12:04:26.673Z,50.7042
2019-05-15T12:05:20.275Z,50.8339
2019-05-15T12:06:23.368Z,51.0719
2019-05-15T12:07:28.856Z,50.8614
2019-05-15T12:08:32.304Z,51.1025
2019-05-15T12:09:35.314Z,50.9483
2019-05-15T12:10:38.870Z,50.0053
2019-05-15T12:11:42.350Z,50.4631
2019-05-15T12:12:45.300Z,49.2088
2019-05-15T12:13:48.310Z,48.7358
2019-05-15T12:14:51.295Z,49.4057
2019-05-15T12:15:54.369Z,49.9092
2019-05-15T12:18:05.305Z,50.2617
2019-05-15T12:19:12.730Z,50.5226
2019-05-15T12:20:19.079Z,50.6783
2019-05-15T12:21:22.320Z,50.6401
2019-05-15T12:22:25.337Z,50.5394
2019-05-15T12:23:29.121Z,50.4158
2019-05-15T12:24:36.546Z,50.9606
2019-05-15T12:25:40.344Z,50.8141
2019-05-15T12:26:43.323Z,51.4458
2019-05-15T12:27:49.028Z,50.9941
2019-05-15T12:28:52.300Z,51.0842
2019-05-15T12:29:55.330Z,50.8049
2019-05-15T12:30:59.566Z,50.7362
2019-05-15T12:32:22.011Z,50.7195
2019-05-15T12:33:11.331Z,49.8802
2019-05-15T12:34:14.321Z,50.3166
2019-05-15T12:35:20.439Z,50.0908
2019-05-15T12:37:32.354Z,49.8619
2019-05-15T12:38:35.335Z,49.5430
2019-05-15T12:39:40.961Z,49.9504
2019-05-15T13:00:01.501Z,48.7968
2019-05-15T13:01:15.831Z,49.6391
2019-05-15T13:02:12.294Z,48.4077
2019-05-15T13:03:15.347Z,49.1218
2019-05-15T13:04:19.957Z,49.6391
2019-05-15T13:05:23.353Z,49.8039
2019-05-15T13:06:28.442Z,49.2912
2019-05-15T13:07:31.317Z,49.5003
2019-05-15T13:08:34.347Z,49.4087
2019-05-15T13:09:38.135Z,49.8985
2019-05-15T13:10:41.320Z,50.0450
2019-05-15T13:11:44.318Z,50.1457
2019-05-15T13:12:59.284Z,49.3080